Decoded Metar for KAWM (W MEMPHIS MUNI in AR, USA) (IATA:AWM) | Meteo·Mobile Aviation Weather
aviador You're here:

KAWM Decoded Metar

W MEMPHIS MUNI in AR, USA
Report Time2019-04-23 15:53:00
UTC Time2019-04-23 16:15:24
Flight Rules vfr VFR
Wind210° at 09 kt
W.Decomp.*RWY 17: 7.0 kt HW 5.7 kt RCW
Visibility9999 m
Phenomena:N/A
Clouds:N/A
Expected CloudBase > 2,000 ft AGL from Temp-Dew spread
CeilingNone
Temp21°C (ISA +6)
Dew Point16°C (73% RH)
AAT19.7°C
QNH1019 hPa
Density Alt1,004 ft
Elevation213 ft
Report Wrong Elevation
Raw Report
KAWM 231553Z AUTO 21009KT 180V250 10SM CLR 21/16 A3008 RMK AO2
SLP184 T02110161=

Extra information for KAWM:More info

Metar Taf Metar & Taf Last 4 Metars F.Rules Stats Wind Profile Meteogram Temp Stats Airport Information Weather charts Add Link Nearby VenuesMetar ALERT Operation Metar Decoded Social comments

AIRNAV info for KAWM